Time;durP1;ratioP1;P1;durP2;ratioP2;P2;SDS_P1;SDS_P2;PMS_P1;PMS_P2;Temp;Humidity;BMP_temperature;BMP_pressure;BME280_temperature;BME280_humidity;BME280_pressure;Samples;Min_cycle;Max_cycle;Signal;HPM_P1;HPM_P2
2022/11/15 04:33:12;;;;;;;;;;;;;;;;;;8805844;23;27836;-94
2022/11/15 04:41:33;;;;;;;;;;;;;;;;;;8249175;28;26865;-94
2022/11/15 04:45:33;;;;;;;;;;;;;;;;;;8232825;28;28378;-94
2022/11/15 04:49:36;;;;;;;;;;;;;;;;;;8230716;28;26940;-95
2022/11/15 04:53:36;;;;;;;;;;;;;;;;;;8242233;28;26992;-94
2022/11/15 04:57:38;;;;;;;;;;;;;;;;;;8239421;28;28207;-95
2022/11/15 05:01:38;;;;;;;;;;;;;;;;;;8241341;28;26874;-94
2022/11/15 05:13:59;;;;;;;;;;;;;;;;;;8865084;23;27773;-92
2022/11/15 05:18:00;;;;;;;;;;;;;;;;;;8233888;28;27094;-93
2022/11/15 05:42:53;;;;;;;;;;;;;;;;;;8699580;23;27706;-95
2022/11/15 05:46:53;;;;;;;;;;;;;;;;;;8235739;28;27019;-94
2022/11/15 05:50:53;;;;;;;;;;;;;;;;;;8236793;28;27160;-93
2022/11/15 05:54:53;;;;;;;;;;;;;;;;;;8242070;28;28283;-95
2022/11/15 05:58:53;;;;;;;;;;;;;;;;;;8236060;28;26986;-94
2022/11/15 06:03:01;;;;;;;;;;;;;;;;;;8238530;28;27089;-95
2022/11/15 06:28:02;;;;;;;;;;;;;;;;;;8280153;23;27992;-95
2022/11/15 06:32:05;;;;;;;;;;;;;;;;;;8275358;28;27256;-95
2022/11/15 06:36:06;;;;;;;;;;;;;;;;;;8218270;28;27152;-95
2022/11/15 06:40:16;;;;;;;;;;;;;;;;;;;;;
2022/11/15 06:44:16;;;;;;;;;;;;;;;;;;8239295;28;56090;-96
2022/11/15 06:52:34;;;;;;;;;;;;;;;;;;8683535;23;27810;-94
2022/11/15 06:56:34;;;;;;;;;;;;;;;;;;8245678;28;27042;-94
2022/11/15 07:00:34;;;;;;;;;;;;;;;;;;8231492;28;27549;-94
2022/11/15 07:04:38;;;;;;;;;;;;;;;;;;8230059;28;26953;-93
2022/11/15 07:21:38;;;;;;;;;;;;;;;;;;;;;
2022/11/15 07:25:41;;;;;;;;;;;;;;;;;;8263066;28;55475;-94
2022/11/15 07:33:51;;;;;;;;;;;;;;;;;;8347929;23;27629;-93
2022/11/15 07:37:51;;;;;;;;;;;;;;;;;;8217679;28;26912;-94
2022/11/15 07:42:52;;;;;;;;;;;;;;;;;;8215426;28;28058;-94
2022/11/15 08:24:03;;;;;;;;;;;;;;;;;;8349411;23;27174;-94
2022/11/15 09:51:48;;;;;;;;;;;;;;;;;;8290347;28;27098;-93
2022/11/15 20:29:50;;;;;;;;;;;;;;;;;;8823068;23;28184;-78
2022/11/15 20:33:50;;;;;;;;;;;;;;;;;;8244004;28;28064;-78
2022/11/15 20:37:50;;;;;;;;;;;;;;;;;;8237175;28;27206;-77
2022/11/15 20:41:50;;;;;;;;;;;;;;;;;;8239097;28;28205;-77
2022/11/15 20:45:51;;;;;;;;;;;;;;;;;;8241896;28;27079;-79
2022/11/15 20:49:51;;;;;;;;;;;;;;;;;;8235403;28;27650;-77
2022/11/15 20:53:51;;;;;;;;;;;;;;;;;;8235744;28;27461;-76
2022/11/15 20:57:53;;;;;;;;;;;;;;;;;;8242040;28;48091;-79
2022/11/15 21:01:53;;;;;;;;;;;;;;;;;;8246522;28;27905;-80
2022/11/15 21:05:53;;;;;;;;;;;;;;;;;;8243524;28;27312;-79
2022/11/15 21:14:12;;;;;;;;;;;;;;;;;;8232338;28;28886;-79
2022/11/15 21:18:12;;;;;;;;;;;;;;;;;;8240268;28;27452;-79
2022/11/15 21:22:12;;;;;;;;;;;;;;;;;;8237347;28;27206;-79
2022/11/15 21:26:13;;;;;;;;;;;;;;;;;;8240662;28;27212;-79
2022/11/15 21:30:13;;;;;;;;;;;;;;;;;;8234878;28;27714;-79
2022/11/15 21:34:13;;;;;;;;;;;;;;;;;;8242027;28;27760;-79
2022/11/15 21:38:13;;;;;;;;;;;;;;;;;;8242403;28;27106;-79
2022/11/15 21:42:13;;;;;;;;;;;;;;;;;;8238679;28;27720;-79
2022/11/15 21:46:13;;;;;;;;;;;;;;;;;;8236640;28;27427;-80
2022/11/15 21:50:13;;;;;;;;;;;;;;;;;;8236959;28;27629;-78
2022/11/15 21:54:13;;;;;;;;;;;;;;;;;;8240197;28;27231;-78
2022/11/15 21:58:13;;;;;;;;;;;;;;;;;;8240819;28;27230;-77
2022/11/15 22:02:13;;;;;;;;;;;;;;;;;;8224429;28;28903;-79
2022/11/15 22:06:13;;;;;;;;;;;;;;;;;;8236517;28;27159;-78
2022/11/15 22:10:13;;;;;;;;;;;;;;;;;;8243037;28;27517;-79
2022/11/15 22:14:13;;;;;;;;;;;;;;;;;;8235811;28;27822;-77
2022/11/15 22:18:13;;;;;;;;;;;;;;;;;;8227803;28;27512;-80
2022/11/15 22:22:14;;;;;;;;;;;;;;;;;;8222006;28;29575;-79
2022/11/15 22:26:14;;;;;;;;;;;;;;;;;;8241837;28;27337;-78
2022/11/15 22:30:14;;;;;;;;;;;;;;;;;;8237412;28;27429;-78
2022/11/15 22:34:14;;;;;;;;;;;;;;;;;;8241673;28;27438;-80
2022/11/15 22:38:14;;;;;;;;;;;;;;;;;;8243443;28;27166;-80
2022/11/15 22:42:14;;;;;;;;;;;;;;;;;;8245202;28;27921;-79
2022/11/15 22:46:14;;;;;;;;;;;;;;;;;;8243132;28;27467;-77
2022/11/15 22:50:14;;;;;;;;;;;;;;;;;;8248555;28;27269;-79
2022/11/15 22:54:14;;;;;;;;;;;;;;;;;;8239439;28;27293;-79
2022/11/15 22:58:15;;;;;;;;;;;;;;;;;;8230762;28;27489;-78
2022/11/15 23:02:15;;;;;;;;;;;;;;;;;;8234604;28;27494;-77
2022/11/15 23:06:15;;;;;;;;;;;;;;;;;;8239073;28;27482;-78
2022/11/15 23:14:34;;;;;;;;;;;;;;;;;;8238127;28;27405;-77
2022/11/15 23:18:34;;;;;;;;;;;;;;;;;;8242517;28;27187;-77
2022/11/15 23:22:47;;;;;;;;;;;;;;;;;;8242499;28;27857;-77
2022/11/15 23:26:47;;;;;;;;;;;;;;;;;;8243434;28;27419;-78
2022/11/15 23:35:06;;;;;;;;;;;;;;;;;;8234297;28;27249;-78
2022/11/15 23:39:06;;;;;;;;;;;;;;;;;;8242351;28;27922;-77
2022/11/15 23:43:06;;;;;;;;;;;;;;;;;;8240505;28;27388;-77
2022/11/15 23:47:06;;;;;;;;;;;;;;;;;;8244026;28;28536;-78
2022/11/15 23:51:06;;;;;;;;;;;;;;;;;;8221365;28;29403;-78
2022/11/15 23:55:06;;;;;;;;;;;;;;;;;;8246268;28;27674;-78
2022/11/15 23:59:06;;;;;;;;;;;;;;;;;;8247771;28;27214;-78
